sensor_id;sensor_type;location;lat;lon;timestamp;pressure;altitude;pressure_sealevel;temperature;humidity
19520;BME280;9904;52.246;20.898;2024-03-29T00:01:59;98373.06;;;8.87;84.50
19520;BME280;9904;52.246;20.898;2024-03-29T00:04:25;98372.69;;;8.91;84.57
19520;BME280;9904;52.246;20.898;2024-03-29T00:06:50;98389.91;;;8.90;85.50
19520;BME280;9904;52.246;20.898;2024-03-29T00:09:16;98392.44;;;8.91;85.36
19520;BME280;9904;52.246;20.898;2024-03-29T00:11:41;98400.44;;;8.84;85.93
19520;BME280;9904;52.246;20.898;2024-03-29T00:14:07;98401.72;;;8.74;86.52
19520;BME280;9904;52.246;20.898;2024-03-29T00:16:32;98406.47;;;8.71;86.75
19520;BME280;9904;52.246;20.898;2024-03-29T00:18:58;98399.69;;;8.76;87.09
19520;BME280;9904;52.246;20.898;2024-03-29T00:21:24;98409.63;;;8.75;87.23
19520;BME280;9904;52.246;20.898;2024-03-29T00:23:49;98407.47;;;8.70;87.63
19520;BME280;9904;52.246;20.898;2024-03-29T00:26:16;98414.09;;;8.68;88.09
19520;BME280;9904;52.246;20.898;2024-03-29T00:28:42;98421.28;;;8.76;87.40
19520;BME280;9904;52.246;20.898;2024-03-29T00:31:08;98432.16;;;8.67;87.82
19520;BME280;9904;52.246;20.898;2024-03-29T00:33:34;98430.47;;;8.66;88.27
19520;BME280;9904;52.246;20.898;2024-03-29T00:36:01;98434.84;;;8.67;87.80
19520;BME280;9904;52.246;20.898;2024-03-29T00:38:26;98437.78;;;8.57;87.75
19520;BME280;9904;52.246;20.898;2024-03-29T00:40:52;98438.56;;;8.66;88.33
19520;BME280;9904;52.246;20.898;2024-03-29T00:43:17;98451.50;;;8.71;87.69
19520;BME280;9904;52.246;20.898;2024-03-29T00:45:44;98452.72;;;8.68;87.55
19520;BME280;9904;52.246;20.898;2024-03-29T00:48:09;98458.09;;;8.68;87.75
19520;BME280;9904;52.246;20.898;2024-03-29T00:50:35;98462.91;;;8.58;88.17
19520;BME280;9904;52.246;20.898;2024-03-29T00:53:04;98469.31;;;8.57;88.43
19520;BME280;9904;52.246;20.898;2024-03-29T00:55:30;98473.31;;;8.61;88.28
19520;BME280;9904;52.246;20.898;2024-03-29T00:57:55;98481.59;;;8.60;88.97
19520;BME280;9904;52.246;20.898;2024-03-29T01:00:21;98485.78;;;8.62;88.34
19520;BME280;9904;52.246;20.898;2024-03-29T01:02:46;98491.56;;;8.59;89.07
19520;BME280;9904;52.246;20.898;2024-03-29T01:05:12;98495.00;;;8.53;90.13
19520;BME280;9904;52.246;20.898;2024-03-29T01:07:41;98504.25;;;8.50;90.73
19520;BME280;9904;52.246;20.898;2024-03-29T01:10:08;98506.81;;;8.52;89.64
19520;BME280;9904;52.246;20.898;2024-03-29T01:12:35;98516.56;;;8.53;90.45
19520;BME280;9904;52.246;20.898;2024-03-29T01:15:01;98520.91;;;8.54;89.79
19520;BME280;9904;52.246;20.898;2024-03-29T01:17:28;98531.06;;;8.52;89.70
19520;BME280;9904;52.246;20.898;2024-03-29T01:19:54;98528.38;;;8.52;90.67
19520;BME280;9904;52.246;20.898;2024-03-29T01:22:19;98538.53;;;8.41;92.38
19520;BME280;9904;52.246;20.898;2024-03-29T01:24:45;98536.84;;;8.40;92.62
19520;BME280;9904;52.246;20.898;2024-03-29T01:27:10;98541.09;;;8.35;92.88
19520;BME280;9904;52.246;20.898;2024-03-29T01:29:36;98547.69;;;8.32;93.03
19520;BME280;9904;52.246;20.898;2024-03-29T01:32:03;98554.09;;;8.31;93.13
19520;BME280;9904;52.246;20.898;2024-03-29T01:34:29;98555.47;;;8.27;92.79
19520;BME280;9904;52.246;20.898;2024-03-29T01:36:55;98558.53;;;8.24;93.18
19520;BME280;9904;52.246;20.898;2024-03-29T01:39:21;98564.28;;;8.21;92.83
19520;BME280;9904;52.246;20.898;2024-03-29T01:41:52;98572.84;;;8.24;92.54
19520;BME280;9904;52.246;20.898;2024-03-29T01:44:18;98581.78;;;8.25;91.49
19520;BME280;9904;52.246;20.898;2024-03-29T01:46:43;98584.66;;;8.23;91.32
19520;BME280;9904;52.246;20.898;2024-03-29T01:49:10;98586.28;;;8.33;90.04
19520;BME280;9904;52.246;20.898;2024-03-29T01:51:37;98587.47;;;8.30;89.29
19520;BME280;9904;52.246;20.898;2024-03-29T01:54:08;98588.59;;;8.36;88.91
19520;BME280;9904;52.246;20.898;2024-03-29T01:56:35;98586.22;;;8.41;87.95
19520;BME280;9904;52.246;20.898;2024-03-29T01:59:03;98595.31;;;8.48;86.69
19520;BME280;9904;52.246;20.898;2024-03-29T02:01:30;98597.16;;;8.48;87.04
19520;BME280;9904;52.246;20.898;2024-03-29T02:03:56;98600.72;;;8.40;87.24
19520;BME280;9904;52.246;20.898;2024-03-29T02:06:22;98608.44;;;8.43;86.33
19520;BME280;9904;52.246;20.898;2024-03-29T02:08:57;98623.97;;;8.41;86.49
19520;BME280;9904;52.246;20.898;2024-03-29T02:11:23;98621.63;;;8.38;86.35
19520;BME280;9904;52.246;20.898;2024-03-29T02:13:49;98627.16;;;8.45;86.24
19520;BME280;9904;52.246;20.898;2024-03-29T02:16:15;98630.53;;;8.47;86.27
19520;BME280;9904;52.246;20.898;2024-03-29T02:18:41;98631.38;;;8.47;85.51
19520;BME280;9904;52.246;20.898;2024-03-29T02:21:07;98638.28;;;8.41;85.78
19520;BME280;9904;52.246;20.898;2024-03-29T02:23:37;98634.09;;;8.47;85.25
19520;BME280;9904;52.246;20.898;2024-03-29T02:26:03;98640.78;;;8.51;85.11
19520;BME280;9904;52.246;20.898;2024-03-29T02:28:30;98647.84;;;8.52;85.16
19520;BME280;9904;52.246;20.898;2024-03-29T02:30:55;98650.25;;;8.47;85.14
19520;BME280;9904;52.246;20.898;2024-03-29T02:33:21;98657.34;;;8.40;85.24
19520;BME280;9904;52.246;20.898;2024-03-29T02:35:47;98666.75;;;8.44;84.76
19520;BME280;9904;52.246;20.898;2024-03-29T02:38:13;98678.72;;;8.41;85.09
19520;BME280;9904;52.246;20.898;2024-03-29T02:40:38;98673.19;;;8.35;85.20
19520;BME280;9904;52.246;20.898;2024-03-29T02:43:04;98678.78;;;8.33;85.39
19520;BME280;9904;52.246;20.898;2024-03-29T02:45:29;98686.00;;;8.41;84.92
19520;BME280;9904;52.246;20.898;2024-03-29T02:47:55;98701.31;;;8.40;85.06
19520;BME280;9904;52.246;20.898;2024-03-29T02:50:21;98688.41;;;8.28;84.84
19520;BME280;9904;52.246;20.898;2024-03-29T02:52:47;98695.16;;;8.23;85.04
19520;BME280;9904;52.246;20.898;2024-03-29T02:55:13;98711.13;;;8.33;84.53
19520;BME280;9904;52.246;20.898;2024-03-29T02:57:39;98722.81;;;8.25;84.85
19520;BME280;9904;52.246;20.898;2024-03-29T03:00:05;98725.59;;;8.40;83.48
19520;BME280;9904;52.246;20.898;2024-03-29T03:02:32;98720.69;;;8.44;82.62
19520;BME280;9904;52.246;20.898;2024-03-29T03:04:57;98728.47;;;8.47;82.31
19520;BME280;9904;52.246;20.898;2024-03-29T03:07:24;98726.59;;;8.48;82.42
19520;BME280;9904;52.246;20.898;2024-03-29T03:10:09;98735.69;;;8.47;81.63
19520;BME280;9904;52.246;20.898;2024-03-29T03:12:53;98738.25;;;8.48;81.03
19520;BME280;9904;52.246;20.898;2024-03-29T03:15:19;98748.50;;;8.45;81.12
19520;BME280;9904;52.246;20.898;2024-03-29T03:17:45;98752.53;;;8.49;81.50
19520;BME280;9904;52.246;20.898;2024-03-29T03:20:10;98753.41;;;8.41;81.45
19520;BME280;9904;52.246;20.898;2024-03-29T03:22:39;98766.38;;;8.46;81.03
19520;BME280;9904;52.246;20.898;2024-03-29T03:25:05;98774.78;;;8.51;80.74
19520;BME280;9904;52.246;20.898;2024-03-29T03:27:30;98782.88;;;8.43;81.00
19520;BME280;9904;52.246;20.898;2024-03-29T03:29:56;98782.06;;;8.42;80.43
19520;BME280;9904;52.246;20.898;2024-03-29T03:32:21;98768.06;;;8.38;80.82
19520;BME280;9904;52.246;20.898;2024-03-29T03:34:47;98785.28;;;8.37;80.81
19520;BME280;9904;52.246;20.898;2024-03-29T03:37:13;98789.69;;;8.30;81.13
19520;BME280;9904;52.246;20.898;2024-03-29T03:39:38;98797.06;;;8.36;81.07
19520;BME280;9904;52.246;20.898;2024-03-29T03:42:04;98798.78;;;8.21;81.41
19520;BME280;9904;52.246;20.898;2024-03-29T03:44:30;98803.31;;;8.20;81.33
19520;BME280;9904;52.246;20.898;2024-03-29T03:46:55;98809.09;;;8.17;81.79
19520;BME280;9904;52.246;20.898;2024-03-29T03:49:21;98819.19;;;8.15;81.77
19520;BME280;9904;52.246;20.898;2024-03-29T03:51:47;98817.31;;;8.16;81.85
19520;BME280;9904;52.246;20.898;2024-03-29T03:54:12;98812.97;;;8.06;81.99
19520;BME280;9904;52.246;20.898;2024-03-29T03:56:38;98817.50;;;8.06;81.88
19520;BME280;9904;52.246;20.898;2024-03-29T03:59:03;98823.91;;;8.05;81.82
19520;BME280;9904;52.246;20.898;2024-03-29T04:01:29;98828.66;;;8.03;81.60
19520;BME280;9904;52.246;20.898;2024-03-29T04:03:54;98835.88;;;8.02;81.44
19520;BME280;9904;52.246;20.898;2024-03-29T04:06:20;98834.38;;;7.91;81.51
19520;BME280;9904;52.246;20.898;2024-03-29T04:08:47;98833.88;;;7.88;81.71
19520;BME280;9904;52.246;20.898;2024-03-29T04:11:13;98840.94;;;7.97;80.77
19520;BME280;9904;52.246;20.898;2024-03-29T04:13:38;98838.59;;;7.94;80.99
19520;BME280;9904;52.246;20.898;2024-03-29T04:16:06;98838.25;;;7.89;81.08
19520;BME280;9904;52.246;20.898;2024-03-29T04:18:35;98832.03;;;7.80;81.37
19520;BME280;9904;52.246;20.898;2024-03-29T04:21:02;98841.97;;;7.88;80.49
19520;BME280;9904;52.246;20.898;2024-03-29T04:23:28;98855.78;;;7.85;80.52
19520;BME280;9904;52.246;20.898;2024-03-29T04:25:57;98867.91;;;7.81;80.43
19520;BME280;9904;52.246;20.898;2024-03-29T04:28:23;98864.50;;;7.78;80.54
19520;BME280;9904;52.246;20.898;2024-03-29T04:30:56;98881.84;;;7.59;81.68
19520;BME280;9904;52.246;20.898;2024-03-29T04:33:22;98880.53;;;7.64;81.91
19520;BME280;9904;52.246;20.898;2024-03-29T04:35:54;98879.16;;;7.51;82.22
19520;BME280;9904;52.246;20.898;2024-03-29T04:38:20;98886.22;;;7.36;83.49
19520;BME280;9904;52.246;20.898;2024-03-29T04:40:46;98879.28;;;7.33;83.64
19520;BME280;9904;52.246;20.898;2024-03-29T04:43:12;98891.38;;;7.21;84.55
19520;BME280;9904;52.246;20.898;2024-03-29T04:45:37;98889.66;;;7.11;85.05
19520;BME280;9904;52.246;20.898;2024-03-29T04:48:03;98893.00;;;7.05;85.62
19520;BME280;9904;52.246;20.898;2024-03-29T04:50:29;98921.28;;;7.09;86.00
19520;BME280;9904;52.246;20.898;2024-03-29T04:52:55;98919.41;;;7.02;86.47
19520;BME280;9904;52.246;20.898;2024-03-29T04:55:20;98934.41;;;7.12;85.66
19520;BME280;9904;52.246;20.898;2024-03-29T04:57:46;98921.22;;;6.93;86.47
19520;BME280;9904;52.246;20.898;2024-03-29T05:00:12;98930.41;;;6.82;87.25
19520;BME280;9904;52.246;20.898;2024-03-29T05:02:38;98931.06;;;6.76;87.45
19520;BME280;9904;52.246;20.898;2024-03-29T05:05:03;98932.94;;;6.84;87.07
19520;BME280;9904;52.246;20.898;2024-03-29T05:07:30;98933.25;;;6.80;87.37
19520;BME280;9904;52.246;20.898;2024-03-29T05:09:56;98928.72;;;6.81;86.91
19520;BME280;9904;52.246;20.898;2024-03-29T05:12:21;98930.94;;;6.86;86.81
19520;BME280;9904;52.246;20.898;2024-03-29T05:14:47;98934.97;;;6.90;86.33
19520;BME280;9904;52.246;20.898;2024-03-29T05:17:15;98929.72;;;6.80;86.58
19520;BME280;9904;52.246;20.898;2024-03-29T05:19:43;98954.72;;;6.98;86.12
19520;BME280;9904;52.246;20.898;2024-03-29T05:22:08;98943.41;;;6.95;85.92
19520;BME280;9904;52.246;20.898;2024-03-29T05:24:34;98942.75;;;6.93;85.94
19520;BME280;9904;52.246;20.898;2024-03-29T05:27:00;98947.00;;;7.04;85.69
19520;BME280;9904;52.246;20.898;2024-03-29T05:29:25;98944.28;;;7.04;85.47
19520;BME280;9904;52.246;20.898;2024-03-29T05:31:51;98947.03;;;7.12;85.04
19520;BME280;9904;52.246;20.898;2024-03-29T05:34:17;98954.78;;;7.23;84.88
19520;BME280;9904;52.246;20.898;2024-03-29T05:36:42;98954.78;;;7.23;84.46
19520;BME280;9904;52.246;20.898;2024-03-29T05:39:09;98953.66;;;7.34;84.22
19520;BME280;9904;52.246;20.898;2024-03-29T05:41:35;98960.72;;;7.35;84.21
19520;BME280;9904;52.246;20.898;2024-03-29T05:44:00;98955.06;;;7.47;83.08
19520;BME280;9904;52.246;20.898;2024-03-29T05:46:26;98950.69;;;7.54;82.52
19520;BME280;9904;52.246;20.898;2024-03-29T05:48:51;98945.97;;;7.56;82.86
19520;BME280;9904;52.246;20.898;2024-03-29T05:51:17;98949.16;;;7.59;82.59
19520;BME280;9904;52.246;20.898;2024-03-29T05:53:43;98952.53;;;7.53;82.26
19520;BME280;9904;52.246;20.898;2024-03-29T05:56:08;98955.06;;;7.63;81.66
19520;BME280;9904;52.246;20.898;2024-03-29T05:58:34;98962.84;;;7.74;81.28
19520;BME280;9904;52.246;20.898;2024-03-29T06:01:00;98950.88;;;7.69;81.42
19520;BME280;9904;52.246;20.898;2024-03-29T06:03:25;98957.13;;;7.86;81.22
19520;BME280;9904;52.246;20.898;2024-03-29T06:05:51;98956.47;;;7.92;80.74
19520;BME280;9904;52.246;20.898;2024-03-29T06:08:16;98948.06;;;7.95;81.23
19520;BME280;9904;52.246;20.898;2024-03-29T06:10:43;98940.66;;;8.14;79.89
19520;BME280;9904;52.246;20.898;2024-03-29T06:13:08;98958.53;;;8.15;79.93
19520;BME280;9904;52.246;20.898;2024-03-29T06:15:44;98961.88;;;8.17;79.59
19520;BME280;9904;52.246;20.898;2024-03-29T06:18:28;98971.81;;;8.24;79.67
19520;BME280;9904;52.246;20.898;2024-03-29T06:20:54;98958.00;;;8.36;79.58
19520;BME280;9904;52.246;20.898;2024-03-29T06:23:19;98984.13;;;8.44;77.95
19520;BME280;9904;52.246;20.898;2024-03-29T06:25:45;98984.28;;;8.50;78.02
19520;BME280;9904;52.246;20.898;2024-03-29T06:28:11;98993.03;;;8.44;78.05
19520;BME280;9904;52.246;20.898;2024-03-29T06:30:36;99000.97;;;8.54;78.74
19520;BME280;9904;52.246;20.898;2024-03-29T06:33:02;98987.34;;;8.55;78.32
19520;BME280;9904;52.246;20.898;2024-03-29T06:35:29;98997.94;;;8.74;76.68
19520;BME280;9904;52.246;20.898;2024-03-29T06:37:56;98991.66;;;8.90;76.08
19520;BME280;9904;52.246;20.898;2024-03-29T06:40:22;98988.28;;;8.87;75.07
19520;BME280;9904;52.246;20.898;2024-03-29T06:42:47;98992.66;;;8.88;74.76
19520;BME280;9904;52.246;20.898;2024-03-29T06:45:13;99013.72;;;9.01;75.28
19520;BME280;9904;52.246;20.898;2024-03-29T06:47:39;99012.03;;;9.00;74.18
19520;BME280;9904;52.246;20.898;2024-03-29T06:50:05;99020.63;;;9.12;74.01
19520;BME280;9904;52.246;20.898;2024-03-29T06:52:30;99027.88;;;9.12;74.27
19520;BME280;9904;52.246;20.898;2024-03-29T06:54:56;99028.66;;;9.29;74.03
19520;BME280;9904;52.246;20.898;2024-03-29T06:57:22;99036.59;;;9.30;73.39
19520;BME280;9904;52.246;20.898;2024-03-29T06:59:51;99029.81;;;9.43;72.52
19520;BME280;9904;52.246;20.898;2024-03-29T07:02:17;99028.66;;;9.37;72.61
19520;BME280;9904;52.246;20.898;2024-03-29T07:04:42;99024.06;;;9.38;72.64
19520;BME280;9904;52.246;20.898;2024-03-29T07:07:08;99033.84;;;9.47;71.32
19520;BME280;9904;52.246;20.898;2024-03-29T07:09:34;99028.91;;;9.59;71.71
19520;BME280;9904;52.246;20.898;2024-03-29T07:11:59;99025.97;;;10.00;71.15
19520;BME280;9904;52.246;20.898;2024-03-29T07:14:25;99035.16;;;10.45;69.52
19520;BME280;9904;52.246;20.898;2024-03-29T07:16:52;99029.13;;;11.26;64.60
19520;BME280;9904;52.246;20.898;2024-03-29T07:19:18;99025.47;;;12.16;60.81
19520;BME280;9904;52.246;20.898;2024-03-29T07:21:45;99026.00;;;13.05;59.25
19520;BME280;9904;52.246;20.898;2024-03-29T07:24:11;99028.03;;;14.28;55.17
19520;BME280;9904;52.246;20.898;2024-03-29T07:26:37;99036.53;;;14.87;52.42
19520;BME280;9904;52.246;20.898;2024-03-29T07:29:02;99029.28;;;15.46;50.52
19520;BME280;9904;52.246;20.898;2024-03-29T07:31:31;99035.53;;;15.67;49.10
19520;BME280;9904;52.246;20.898;2024-03-29T07:33:57;99019.94;;;15.09;50.47
19520;BME280;9904;52.246;20.898;2024-03-29T07:36:22;99031.84;;;16.96;45.34
19520;BME280;9904;52.246;20.898;2024-03-29T07:38:51;99034.88;;;18.06;42.83
19520;BME280;9904;52.246;20.898;2024-03-29T07:41:16;99028.03;;;17.78;41.94
19520;BME280;9904;52.246;20.898;2024-03-29T07:43:56;99035.94;;;17.68;43.34
19520;BME280;9904;52.246;20.898;2024-03-29T07:46:28;99033.81;;;18.07;42.16
19520;BME280;9904;52.246;20.898;2024-03-29T07:48:55;99031.91;;;19.63;38.79
19520;BME280;9904;52.246;20.898;2024-03-29T07:51:20;99030.03;;;19.40;38.49
19520;BME280;9904;52.246;20.898;2024-03-29T07:53:46;99034.06;;;18.90;39.69
19520;BME280;9904;52.246;20.898;2024-03-29T07:56:12;99031.28;;;17.87;40.72
19520;BME280;9904;52.246;20.898;2024-03-29T07:58:37;99036.88;;;18.29;40.72
19520;BME280;9904;52.246;20.898;2024-03-29T08:01:03;99039.44;;;19.56;38.48
19520;BME280;9904;52.246;20.898;2024-03-29T08:03:29;99045.97;;;20.49;35.67
19520;BME280;9904;52.246;20.898;2024-03-29T08:06:01;99048.38;;;20.91;34.26
19520;BME280;9904;52.246;20.898;2024-03-29T08:08:31;99063.03;;;20.80;34.89
19520;BME280;9904;52.246;20.898;2024-03-29T08:10:57;99074.88;;;19.10;37.87
19520;BME280;9904;52.246;20.898;2024-03-29T08:13:26;99076.31;;;18.71;37.78
19520;BME280;9904;52.246;20.898;2024-03-29T08:16:01;99069.53;;;18.73;38.69
19520;BME280;9904;52.246;20.898;2024-03-29T08:18:28;99068.78;;;17.49;40.17
19520;BME280;9904;52.246;20.898;2024-03-29T08:20:54;99079.50;;;17.51;40.78
19520;BME280;9904;52.246;20.898;2024-03-29T08:23:25;99064.72;;;18.26;38.99
19520;BME280;9904;52.246;20.898;2024-03-29T08:25:51;99071.31;;;17.69;39.48
19520;BME280;9904;52.246;20.898;2024-03-29T08:28:20;99071.44;;;16.55;41.32
19520;BME280;9904;52.246;20.898;2024-03-29T08:30:45;99073.06;;;16.30;42.39
19520;BME280;9904;52.246;20.898;2024-03-29T08:33:11;99063.16;;;15.97;43.78
19520;BME280;9904;52.246;20.898;2024-03-29T08:35:37;99065.25;;;15.95;43.56
19520;BME280;9904;52.246;20.898;2024-03-29T08:38:04;99066.28;;;15.94;43.68
19520;BME280;9904;52.246;20.898;2024-03-29T08:40:30;99079.78;;;16.28;44.00
19520;BME280;9904;52.246;20.898;2024-03-29T08:42:57;99069.94;;;15.68;44.94
19520;BME280;9904;52.246;20.898;2024-03-29T08:45:23;99065.53;;;15.67;44.82
19520;BME280;9904;52.246;20.898;2024-03-29T08:47:49;99069.00;;;14.82;46.01
19520;BME280;9904;52.246;20.898;2024-03-29T08:50:15;99080.84;;;14.47;46.79
19520;BME280;9904;52.246;20.898;2024-03-29T08:52:41;99089.72;;;14.69;46.57
19520;BME280;9904;52.246;20.898;2024-03-29T08:55:07;99097.09;;;14.96;46.95
19520;BME280;9904;52.246;20.898;2024-03-29T08:57:33;99099.19;;;14.87;47.29
19520;BME280;9904;52.246;20.898;2024-03-29T08:59:59;99096.88;;;15.24;44.85
19520;BME280;9904;52.246;20.898;2024-03-29T09:02:25;99102.53;;;15.09;45.63
19520;BME280;9904;52.246;20.898;2024-03-29T09:04:51;99092.25;;;14.71;46.64
19520;BME280;9904;52.246;20.898;2024-03-29T09:07:17;99093.00;;;14.45;47.71
19520;BME280;9904;52.246;20.898;2024-03-29T09:09:43;99106.66;;;14.51;48.57
19520;BME280;9904;52.246;20.898;2024-03-29T09:12:09;99109.69;;;14.28;48.73
19520;BME280;9904;52.246;20.898;2024-03-29T09:14:35;99106.16;;;14.27;50.48
19520;BME280;9904;52.246;20.898;2024-03-29T09:17:01;99113.75;;;14.46;48.79
19520;BME280;9904;52.246;20.898;2024-03-29T09:19:28;99119.38;;;14.31;49.68
19520;BME280;9904;52.246;20.898;2024-03-29T09:21:55;99123.09;;;14.23;53.18
19520;BME280;9904;52.246;20.898;2024-03-29T09:24:21;99125.63;;;13.83;51.04
19520;BME280;9904;52.246;20.898;2024-03-29T09:26:50;99118.28;;;14.25;50.59
19520;BME280;9904;52.246;20.898;2024-03-29T09:29:16;99113.06;;;14.23;50.78
19520;BME280;9904;52.246;20.898;2024-03-29T09:31:43;99117.56;;;14.65;49.00
19520;BME280;9904;52.246;20.898;2024-03-29T09:34:09;99122.94;;;14.45;48.44
19520;BME280;9904;52.246;20.898;2024-03-29T09:36:34;99120.06;;;13.98;49.29
19520;BME280;9904;52.246;20.898;2024-03-29T09:39:00;99096.06;;;13.66;51.32
19520;BME280;9904;52.246;20.898;2024-03-29T09:41:26;99095.00;;;13.67;52.57
19520;BME280;9904;52.246;20.898;2024-03-29T09:43:57;99089.09;;;13.99;51.64
19520;BME280;9904;52.246;20.898;2024-03-29T09:46:25;99097.53;;;14.10;51.20
19520;BME280;9904;52.246;20.898;2024-03-29T09:48:53;99104.28;;;13.86;51.33
19520;BME280;9904;52.246;20.898;2024-03-29T09:51:21;99113.34;;;13.58;50.81
19520;BME280;9904;52.246;20.898;2024-03-29T09:53:47;99119.78;;;13.86;50.97
19520;BME280;9904;52.246;20.898;2024-03-29T09:56:14;99122.34;;;13.94;51.65
19520;BME280;9904;52.246;20.898;2024-03-29T09:58:39;99124.19;;;13.87;53.00
19520;BME280;9904;52.246;20.898;2024-03-29T10:01:06;99121.50;;;13.93;51.94
19520;BME280;9904;52.246;20.898;2024-03-29T10:03:36;99127.97;;;14.34;50.06
19520;BME280;9904;52.246;20.898;2024-03-29T10:06:04;99129.19;;;14.25;50.77
19520;BME280;9904;52.246;20.898;2024-03-29T10:08:30;99122.81;;;14.04;52.56
19520;BME280;9904;52.246;20.898;2024-03-29T10:10:57;99127.19;;;13.99;52.43
19520;BME280;9904;52.246;20.898;2024-03-29T10:13:23;99121.97;;;14.04;52.18
19520;BME280;9904;52.246;20.898;2024-03-29T10:15:50;99123.13;;;13.81;50.61
19520;BME280;9904;52.246;20.898;2024-03-29T10:18:17;99117.44;;;14.24;49.21
19520;BME280;9904;52.246;20.898;2024-03-29T10:20:45;99111.66;;;14.48;48.84
19520;BME280;9904;52.246;20.898;2024-03-29T10:23:14;99114.84;;;14.65;49.17
19520;BME280;9904;52.246;20.898;2024-03-29T10:25:39;99117.47;;;14.31;48.73
19520;BME280;9904;52.246;20.898;2024-03-29T10:28:05;99117.50;;;14.45;48.79
19520;BME280;9904;52.246;20.898;2024-03-29T10:30:31;99110.13;;;14.32;49.01
19520;BME280;9904;52.246;20.898;2024-03-29T10:32:57;99118.19;;;14.53;48.46
19520;BME280;9904;52.246;20.898;2024-03-29T10:35:25;99125.81;;;14.23;49.80
19520;BME280;9904;52.246;20.898;2024-03-29T10:37:54;99142.19;;;14.30;50.58
19520;BME280;9904;52.246;20.898;2024-03-29T10:40:21;99139.53;;;14.56;48.49
19520;BME280;9904;52.246;20.898;2024-03-29T10:42:48;99132.66;;;14.67;47.90
19520;BME280;9904;52.246;20.898;2024-03-29T10:45:14;99136.06;;;14.76;48.88
19520;BME280;9904;52.246;20.898;2024-03-29T10:47:43;99133.34;;;14.21;50.32
19520;BME280;9904;52.246;20.898;2024-03-29T10:50:12;99133.41;;;14.34;48.84
19520;BME280;9904;52.246;20.898;2024-03-29T10:52:39;99131.56;;;14.55;49.11
19520;BME280;9904;52.246;20.898;2024-03-29T10:55:11;99143.31;;;14.62;47.73
19520;BME280;9904;52.246;20.898;2024-03-29T10:57:41;99132.47;;;14.76;47.60
19520;BME280;9904;52.246;20.898;2024-03-29T11:00:14;99134.41;;;15.02;47.33
19520;BME280;9904;52.246;20.898;2024-03-29T11:05:16;99124.75;;;14.86;47.69
19520;BME280;9904;52.246;20.898;2024-03-29T11:07:42;99133.75;;;14.86;47.51
19520;BME280;9904;52.246;20.898;2024-03-29T11:12:59;99136.66;;;14.78;48.10
19520;BME280;9904;52.246;20.898;2024-03-29T11:15:30;99140.69;;;15.09;46.83
19520;BME280;9904;52.246;20.898;2024-03-29T11:17:56;99137.13;;;15.02;45.54
19520;BME280;9904;52.246;20.898;2024-03-29T11:20:24;99146.75;;;14.91;46.09
19520;BME280;9904;52.246;20.898;2024-03-29T11:23:01;99123.28;;;14.97;45.90
19520;BME280;9904;52.246;20.898;2024-03-29T11:25:41;99117.44;;;14.93;46.26
19520;BME280;9904;52.246;20.898;2024-03-29T11:28:08;99118.47;;;15.26;44.51
19520;BME280;9904;52.246;20.898;2024-03-29T11:30:42;99124.97;;;15.31;44.24
19520;BME280;9904;52.246;20.898;2024-03-29T11:33:26;99112.38;;;15.24;43.61
19520;BME280;9904;52.246;20.898;2024-03-29T11:35:51;99120.16;;;15.27;45.11
19520;BME280;9904;52.246;20.898;2024-03-29T11:38:18;99119.03;;;15.75;42.44
19520;BME280;9904;52.246;20.898;2024-03-29T11:40:54;99101.81;;;15.88;41.48
19520;BME280;9904;52.246;20.898;2024-03-29T11:43:20;99113.09;;;16.05;41.40
19520;BME280;9904;52.246;20.898;2024-03-29T11:45:47;99121.34;;;15.64;42.57
19520;BME280;9904;52.246;20.898;2024-03-29T11:48:23;99121.81;;;15.48;43.62
19520;BME280;9904;52.246;20.898;2024-03-29T11:50:48;99122.41;;;15.50;42.84
19520;BME280;9904;52.246;20.898;2024-03-29T11:53:14;99137.25;;;15.81;41.57
19520;BME280;9904;52.246;20.898;2024-03-29T11:55:40;99135.16;;;15.76;42.11
19520;BME280;9904;52.246;20.898;2024-03-29T11:58:06;99137.00;;;16.16;41.06
19520;BME280;9904;52.246;20.898;2024-03-29T12:00:31;99125.91;;;16.04;41.77
19520;BME280;9904;52.246;20.898;2024-03-29T12:02:57;99109.53;;;15.97;41.14
19520;BME280;9904;52.246;20.898;2024-03-29T12:05:23;99119.66;;;15.77;42.04
19520;BME280;9904;52.246;20.898;2024-03-29T12:07:49;99127.84;;;15.70;42.04
19520;BME280;9904;52.246;20.898;2024-03-29T12:10:15;99132.03;;;15.79;42.68
19520;BME280;9904;52.246;20.898;2024-03-29T12:12:41;99131.78;;;15.94;42.93
19520;BME280;9904;52.246;20.898;2024-03-29T12:15:08;99137.91;;;15.90;41.86
19520;BME280;9904;52.246;20.898;2024-03-29T12:17:34;99132.28;;;16.37;41.58
19520;BME280;9904;52.246;20.898;2024-03-29T12:19:59;99145.06;;;16.36;42.04
19520;BME280;9904;52.246;20.898;2024-03-29T12:22:32;99132.75;;;16.66;41.24
19520;BME280;9904;52.246;20.898;2024-03-29T12:24:58;99152.13;;;16.57;41.99
19520;BME280;9904;52.246;20.898;2024-03-29T12:27:24;99147.75;;;16.50;41.07
19520;BME280;9904;52.246;20.898;2024-03-29T12:29:51;99144.56;;;16.53;41.09
19520;BME280;9904;52.246;20.898;2024-03-29T12:32:19;99143.34;;;16.48;40.95
19520;BME280;9904;52.246;20.898;2024-03-29T12:34:45;99150.91;;;16.46;41.91
19520;BME280;9904;52.246;20.898;2024-03-29T12:37:12;99155.94;;;16.88;40.54
19520;BME280;9904;52.246;20.898;2024-03-29T12:39:41;99139.38;;;16.83;40.30
19520;BME280;9904;52.246;20.898;2024-03-29T12:42:07;99154.91;;;16.83;40.06
19520;BME280;9904;52.246;20.898;2024-03-29T12:44:33;99162.28;;;16.82;39.54
19520;BME280;9904;52.246;20.898;2024-03-29T12:47:00;99158.22;;;16.59;39.38
19520;BME280;9904;52.246;20.898;2024-03-29T12:49:26;99163.38;;;16.74;39.16
19520;BME280;9904;52.246;20.898;2024-03-29T12:51:55;99166.91;;;16.82;39.18
19520;BME280;9904;52.246;20.898;2024-03-29T12:54:21;99156.03;;;16.75;38.21
19520;BME280;9904;52.246;20.898;2024-03-29T12:56:47;99172.72;;;16.92;37.85
19520;BME280;9904;52.246;20.898;2024-03-29T12:59:13;99160.72;;;17.00;37.00
19520;BME280;9904;52.246;20.898;2024-03-29T13:01:40;99157.13;;;17.06;37.02
19520;BME280;9904;52.246;20.898;2024-03-29T13:04:06;99162.41;;;17.26;38.27
19520;BME280;9904;52.246;20.898;2024-03-29T13:06:32;99159.19;;;17.10;37.46
19520;BME280;9904;52.246;20.898;2024-03-29T13:08:58;99148.28;;;17.04;37.00